Flight Track Log - Related Links

Times and Time Zones

All times are in EDT time to prevent confusion due to time zone crossing. See the PDT4106 flight status page for this flight to view local times or setup timezone preferences in your user account.

Time Position Orientation Groundspeed Altitude Reporting Facility
EDT Latitude Longitude Course Direction KTS MPH feet Rate Location/Type
Mon 10:36:36 PM 35.1950 -80.9331 90° East 133 153 1,300  Level Atlanta Center
Mon 10:37:55 PM 35.1831 -80.8725 104° East 164 189 3,100 1,271 Climbing Atlanta Center
Mon 10:39:00 PM 35.1833 -80.6267 90° East  Level FlightAware Approximate
Mon 10:39:26 PM 35.1933 -80.7856 82° East 186 214 4,900  Level Atlanta Center
Mon 10:40:00 PM 35.1874 -80.5126 39° Northeast  Level FlightAware Approximate
Mon 10:40:03 PM 35.2003 -80.7422 79° East 203 234 4,900  Level Atlanta Center
Mon 10:41:00 PM 35.2000 -80.4033 90° East  Level FlightAware Approximate
Mon 10:41:03 PM 35.2022 -80.6583 88° East 240 276 6,100  Level Atlanta Center
Mon 10:41:44 PM 35.2011 -80.6150 92° East 209 241 6,900 787 Climbing Atlanta Center
Mon 10:42:04 PM 35.2025 -80.5869 87° East 207 238 6,900  Level Atlanta Center
Mon 10:42:44 PM 35.2008 -80.5361 92° East 225 259 6,900 327 Level Atlanta Center
Mon 10:42:59 PM 35.2025 -80.5133 85° East 237 273 7,200 1,300 Climbing Atlanta Center
Mon 10:43:44 PM 35.2028 -80.4575 90° East 228 262 8,200 1,600 Climbing Atlanta Center
Mon 10:43:59 PM 35.2064 -80.4369 78° East 226 260 8,800 1,300 Climbing Atlanta Center
Mon 10:44:44 PM 35.2031 -80.3939 95° East 222 255 9,500 914 Climbing Atlanta Center
Mon 10:45:44 PM 35.2050 -80.3225 88° East 226 260 10,400 1,000 Climbing Atlanta Center
Mon 10:46:44 PM 35.2028 -80.2489 92° East 215 247 11,500 1,000 Climbing Atlanta Center
Mon 10:47:44 PM 35.2047 -80.1753 88° East 215 247 12,400 906 Climbing Atlanta Center
Mon 10:49:56 PM 35.2083 -80.0128 88° East 217 250 14,400 902 Climbing Washington Center
Mon 10:50:57 PM 35.2117 -79.9264 87° East 223 257 15,300 807 Climbing Washington Center
Mon 10:51:55 PM 35.2244 -79.8611 77° East 218 251 16,000 750 Climbing Washington Center
Mon 10:52:57 PM 35.2397 -79.7831 77° East 218 251 16,800 500 Climbing Washington Center
Mon 10:53:55 PM 35.2525 -79.7125 77° East 223 257 17,000 100 Climbing Washington Center
Mon 10:54:57 PM 35.2681 -79.6217 78° East 241 277 17,000  Level Washington Center
Mon 10:55:57 PM 35.2833 -79.5411 77° East 257 296 17,000  Level Washington Center
Mon 10:56:56 PM 35.2992 -79.4400 79° East 263 303 17,000 -50 Level Washington Center
Mon 10:57:56 PM 35.3147 -79.3492 78° East 263 303 16,900 -50 Descending Washington Center
Mon 10:58:57 PM 35.3322 -79.2556 77° East 275 316 16,900  Level Washington Center
Mon 10:59:56 PM 35.3475 -79.1647 78° East 275 316 16,900  Level Washington Center
Mon 11:00:57 PM 35.3622 -79.0889 77° East 275 316 16,900  Level Washington Center
Mon 11:01:55 PM 35.3778 -78.9775 80° East 275 316 16,900 -555 Level Washington Center
Mon 11:02:56 PM 35.3928 -78.8889 78° East 281 323 15,800 -1,100 Descending Washington Center
Mon 11:03:55 PM 35.4081 -78.7903 79° East 288 331 14,700 -1,160 Descending Washington Center
Mon 11:04:55 PM 35.4275 -78.6864 77° East 299 344 13,500 -850 Descending Washington Center
Mon 11:05:55 PM 35.4469 -78.5775 78° East 305 351 13,000 -250 Descending Washington Center
Mon 11:06:55 PM 35.4597 -78.4889 80° East 297 342 13,000  Level Washington Center
Mon 11:07:55 PM 35.4764 -78.3925 78° East 297 342 13,000  Level Washington Center
Mon 11:08:55 PM 35.4914 -78.2936 79° East 297 342 13,000 -545 Level Washington Center
Mon 11:09:56 PM 35.5058 -78.1972 80° East 292 336 11,900 -1,328 Descending Washington Center
Mon 11:10:57 PM 35.5225 -78.1008 78° East 292 336 10,300 -1,613 Descending Washington Center
Mon 11:11:55 PM 35.5369 -78.0092 79° East 286 329 8,700 -1,475 Descending Washington Center
Mon 11:12:55 PM 35.5511 -77.9253 78° East 267 307 7,400 -1,279 Descending Washington Center
Mon 11:13:57 PM 35.5633 -77.8364 80° East 262 302 6,100 -1,230 Descending Washington Center
Mon 11:14:57 PM 35.5797 -77.7475 77° East 257 296 4,900 -1,271 Descending Washington Center
Mon 11:15:55 PM 35.5914 -77.6636 80° East 257 296 3,600 -1,311 Descending Washington Center
Mon 11:16:56 PM 35.6053 -77.5847 78° East 250 288 2,300 -934 Descending Washington Center
Mon 11:17:57 PM 35.6150 -77.5108 81° East 232 267 1,700 -403 Descending Washington Center
Mon 11:18:55 PM 35.6200 -77.4547 84° East 196 226 1,500 -207 Descending Washington Center

Login

Don't have an account? Register now (free) for customized features, flight alerts, and more!